createdAt,value
2023-05-17T00:02:16.625Z,11.20
2023-05-17T00:04:45.463Z,11.16
2023-05-17T00:07:22.495Z,11.11
2023-05-17T00:09:50.356Z,11.04
2023-05-17T00:12:18.398Z,11.00
2023-05-17T00:14:46.427Z,10.96
2023-05-17T00:17:15.021Z,10.91
2023-05-17T00:19:42.922Z,10.81
2023-05-17T00:22:10.906Z,10.73
2023-05-17T00:24:38.704Z,10.65
2023-05-17T00:27:06.741Z,10.58
2023-05-17T00:29:34.816Z,10.50
2023-05-17T00:32:02.880Z,10.45
2023-05-17T00:34:30.756Z,10.40
2023-05-17T00:36:58.792Z,10.36
2023-05-17T00:39:26.755Z,10.32
2023-05-17T00:41:54.613Z,10.28
2023-05-17T00:44:31.673Z,10.24
2023-05-17T00:47:00.118Z,10.20
2023-05-17T00:49:28.100Z,10.19
2023-05-17T00:51:56.751Z,10.18
2023-05-17T00:54:25.899Z,10.18
2023-05-17T00:56:54.926Z,10.15
2023-05-17T00:59:23.361Z,10.13
2023-05-17T01:01:52.713Z,10.08
2023-05-17T01:04:21.246Z,10.04
2023-05-17T01:06:49.447Z,10.01
2023-05-17T01:09:21.028Z,9.99
2023-05-17T01:11:56.076Z,9.96
2023-05-17T01:14:32.318Z,9.94
2023-05-17T01:17:29.667Z,9.91
2023-05-17T01:20:07.016Z,9.87
2023-05-17T01:22:49.199Z,9.83
2023-05-17T01:25:35.875Z,9.79
2023-05-17T01:28:04.621Z,9.76
2023-05-17T01:30:34.481Z,9.73
2023-05-17T01:33:02.879Z,9.72
2023-05-17T01:35:31.499Z,9.73
2023-05-17T01:37:59.448Z,9.72
2023-05-17T01:40:27.489Z,9.73
2023-05-17T01:43:10.718Z,9.73
2023-05-17T01:45:49.589Z,9.72
2023-05-17T01:48:23.249Z,9.72
2023-05-17T01:50:52.449Z,9.69
2023-05-17T01:53:22.548Z,9.67
2023-05-17T01:55:52.238Z,9.62
2023-05-17T01:58:21.941Z,9.58
2023-05-17T02:00:52.543Z,9.55
2023-05-17T02:03:20.977Z,9.51
2023-05-17T02:05:52.076Z,9.46
2023-05-17T02:08:20.204Z,9.41
2023-05-17T02:10:48.394Z,9.36
2023-05-17T02:13:16.630Z,9.33
2023-05-17T02:15:44.606Z,9.30
2023-05-17T02:18:13.141Z,9.26
2023-05-17T02:20:41.484Z,9.22
2023-05-17T02:23:09.443Z,9.16
2023-05-17T02:25:37.306Z,9.11
2023-05-17T02:28:05.292Z,9.07
2023-05-17T02:30:33.104Z,9.05
2023-05-17T02:33:01.267Z,9.04
2023-05-17T02:35:31.224Z,9.04
2023-05-17T02:37:59.704Z,9.03
2023-05-17T02:40:27.738Z,9.03
2023-05-17T02:42:55.618Z,9.03
2023-05-17T02:45:23.602Z,9.04
2023-05-17T02:47:51.716Z,9.06
2023-05-17T02:50:19.577Z,9.08
2023-05-17T02:52:47.796Z,9.11
2023-05-17T02:55:15.824Z,9.13
2023-05-17T02:57:43.732Z,9.13
2023-05-17T03:00:11.904Z,9.13
2023-05-17T03:02:40.066Z,9.10
2023-05-17T03:05:08.439Z,9.08
2023-05-17T03:07:36.342Z,9.06
2023-05-17T03:10:04.512Z,9.02
2023-05-17T03:12:32.376Z,8.96
2023-05-17T03:15:00.300Z,8.90
2023-05-17T03:17:28.387Z,8.84
2023-05-17T03:19:56.793Z,8.75
2023-05-17T03:22:24.619Z,8.67
2023-05-17T03:24:52.471Z,8.62
2023-05-17T03:27:20.382Z,8.59
2023-05-17T03:29:48.394Z,8.57
2023-05-17T03:32:16.233Z,8.56
2023-05-17T03:34:44.214Z,8.55
2023-05-17T03:37:12.128Z,8.55
2023-05-17T03:39:39.907Z,8.56
2023-05-17T03:42:08.078Z,8.57
2023-05-17T03:44:36.274Z,8.57
2023-05-17T03:47:04.366Z,8.57
2023-05-17T03:49:32.670Z,8.54
2023-05-17T03:52:00.690Z,8.47
2023-05-17T03:54:28.681Z,8.39
2023-05-17T03:56:56.596Z,8.38
2023-05-17T03:59:24.583Z,8.37
2023-05-17T04:01:52.886Z,8.39
2023-05-17T04:04:20.851Z,8.41
2023-05-17T04:06:48.939Z,8.43
2023-05-17T04:09:17.061Z,8.43
2023-05-17T04:11:45.019Z,8.42
2023-05-17T04:14:12.964Z,8.42
2023-05-17T04:16:41.089Z,8.41
2023-05-17T04:19:09.476Z,8.41
2023-05-17T04:21:39.532Z,8.41
2023-05-17T04:24:07.873Z,8.43
2023-05-17T04:26:35.975Z,8.46
2023-05-17T04:29:03.908Z,8.48
2023-05-17T04:31:32.339Z,8.50
2023-05-17T04:34:00.335Z,8.53
2023-05-17T04:36:28.636Z,8.57
2023-05-17T04:38:56.912Z,8.58
2023-05-17T04:41:24.735Z,8.62
2023-05-17T04:43:52.522Z,8.67
2023-05-17T04:46:23.657Z,8.71
2023-05-17T04:48:51.618Z,8.72
2023-05-17T04:51:20.178Z,8.74
2023-05-17T04:53:48.061Z,8.76
2023-05-17T04:56:16.572Z,8.81
2023-05-17T04:58:44.384Z,8.91
2023-05-17T05:01:12.360Z,9.01
2023-05-17T05:03:50.428Z,9.13
2023-05-17T05:06:18.322Z,9.23
2023-05-17T05:08:46.257Z,9.32
2023-05-17T05:11:14.355Z,9.44
2023-05-17T05:13:42.606Z,9.53
2023-05-17T05:16:10.494Z,9.62
2023-05-17T05:18:38.553Z,9.73
2023-05-17T05:21:06.790Z,9.78
2023-05-17T05:23:34.807Z,9.84
2023-05-17T05:26:02.731Z,10.17
2023-05-17T05:28:31.132Z,11.15
2023-05-17T05:31:00.219Z,11.73
2023-05-17T05:33:28.249Z,11.93
2023-05-17T05:35:56.432Z,12.69
2023-05-17T05:38:24.281Z,13.36
2023-05-17T05:40:52.242Z,14.07
2023-05-17T05:43:20.424Z,14.76
2023-05-17T05:45:48.442Z,15.42
2023-05-17T05:48:16.650Z,16.10
2023-05-17T05:50:45.146Z,16.69
2023-05-17T05:53:19.053Z,17.22
2023-05-17T05:55:47.596Z,17.75
2023-05-17T05:58:15.983Z,18.28
2023-05-17T06:00:43.827Z,18.90
2023-05-17T06:03:11.962Z,19.48
2023-05-17T06:05:41.292Z,19.84
2023-05-17T06:08:09.308Z,20.44
2023-05-17T06:10:37.414Z,20.94
2023-05-17T06:13:05.768Z,21.43
2023-05-17T06:15:33.600Z,21.75
2023-05-17T06:18:01.713Z,21.90
2023-05-17T06:20:30.274Z,22.20
2023-05-17T06:22:58.485Z,22.36
2023-05-17T06:25:26.367Z,22.54
2023-05-17T06:27:54.514Z,22.69
2023-05-17T06:30:22.509Z,22.84
2023-05-17T06:32:50.233Z,23.03
2023-05-17T06:35:18.351Z,23.14
2023-05-17T06:37:46.177Z,23.29
2023-05-17T06:40:17.000Z,23.42
2023-05-17T06:42:45.483Z,23.52
2023-05-17T06:45:14.408Z,23.54
2023-05-17T06:47:42.653Z,23.60
2023-05-17T06:50:11.048Z,23.73
2023-05-17T06:52:45.295Z,23.90
2023-05-17T06:55:13.409Z,24.03
2023-05-17T06:57:41.479Z,24.14
2023-05-17T07:00:11.350Z,24.33
2023-05-17T07:02:39.731Z,24.58
2023-05-17T07:05:08.085Z,24.22
2023-05-17T07:07:37.376Z,23.64
2023-05-17T07:10:06.713Z,23.32
2023-05-17T07:12:35.341Z,23.31
2023-05-17T07:15:04.035Z,23.18
2023-05-17T07:17:35.434Z,22.78
2023-05-17T07:20:03.816Z,23.09
2023-05-17T07:22:31.940Z,23.22
2023-05-17T07:25:01.539Z,23.11
2023-05-17T07:27:29.771Z,23.20
2023-05-17T07:29:57.825Z,23.28
2023-05-17T07:32:25.651Z,22.97
2023-05-17T07:34:53.947Z,22.66
2023-05-17T07:37:22.026Z,22.49
2023-05-17T07:39:53.071Z,22.44
2023-05-17T07:42:21.466Z,22.12
2023-05-17T07:44:50.158Z,21.56
2023-05-17T07:47:18.183Z,20.86
2023-05-17T07:49:47.675Z,20.17
2023-05-17T07:52:15.653Z,19.68
2023-05-17T07:54:43.848Z,19.29
2023-05-17T07:57:11.927Z,19.02
2023-05-17T07:59:40.102Z,18.75
2023-05-17T08:02:08.082Z,18.43
2023-05-17T08:04:36.834Z,18.34
2023-05-17T08:07:04.992Z,18.31
2023-05-17T08:09:33.170Z,18.30
2023-05-17T08:12:02.010Z,18.43
2023-05-17T08:14:30.123Z,18.44
2023-05-17T08:16:58.005Z,18.50
2023-05-17T08:19:26.819Z,18.47
2023-05-17T08:21:55.404Z,18.47
2023-05-17T08:24:23.580Z,18.51
2023-05-17T08:26:51.424Z,18.48
2023-05-17T08:29:19.315Z,18.58
2023-05-17T08:31:47.141Z,18.63
2023-05-17T08:34:15.971Z,18.60
2023-05-17T08:36:44.819Z,18.71
2023-05-17T08:39:13.073Z,18.84
2023-05-17T08:41:41.103Z,18.88
2023-05-17T08:44:09.481Z,18.81
2023-05-17T08:46:38.658Z,18.84
2023-05-17T08:49:07.370Z,18.93
2023-05-17T08:51:36.709Z,19.06
2023-05-17T08:54:06.444Z,19.07
2023-05-17T08:56:36.428Z,19.13
2023-05-17T08:59:06.561Z,19.24
2023-05-17T09:01:34.702Z,19.04
2023-05-17T09:04:02.951Z,18.96
2023-05-17T09:06:32.873Z,19.15
2023-05-17T09:09:01.678Z,19.24
2023-05-17T09:11:33.283Z,19.25
2023-05-17T09:14:02.523Z,19.20
2023-05-17T09:16:31.558Z,19.17
2023-05-17T09:18:59.984Z,19.19
2023-05-17T09:21:34.299Z,19.15
2023-05-17T09:24:07.224Z,19.16
2023-05-17T09:26:44.025Z,19.26
2023-05-17T09:29:14.353Z,19.19
2023-05-17T09:31:42.823Z,19.14
2023-05-17T09:34:11.292Z,18.94
2023-05-17T09:36:42.793Z,18.91
2023-05-17T09:39:13.156Z,18.84
2023-05-17T09:41:48.253Z,18.84
2023-05-17T09:44:16.738Z,18.96
2023-05-17T09:46:46.076Z,18.97
2023-05-17T09:49:15.080Z,18.85
2023-05-17T09:51:45.086Z,18.87
2023-05-17T09:54:13.522Z,18.79
2023-05-17T09:56:42.175Z,18.83
2023-05-17T09:59:14.770Z,18.90
2023-05-17T10:01:43.939Z,18.75
2023-05-17T10:04:12.938Z,18.77
2023-05-17T10:06:49.563Z,18.97
2023-05-17T10:09:22.430Z,19.08
2023-05-17T10:11:52.426Z,19.10
2023-05-17T10:14:38.673Z,19.20
2023-05-17T10:17:10.056Z,19.13
2023-05-17T10:19:38.460Z,18.78
2023-05-17T10:22:21.528Z,18.58
2023-05-17T10:24:51.636Z,18.53
2023-05-17T10:27:21.044Z,18.44
2023-05-17T10:29:51.384Z,18.63
2023-05-17T10:32:21.663Z,19.00
2023-05-17T10:34:58.011Z,19.28
2023-05-17T10:37:34.749Z,19.71
2023-05-17T10:40:05.700Z,19.80
2023-05-17T10:42:34.060Z,19.80
2023-05-17T10:45:02.038Z,19.91
2023-05-17T10:47:33.606Z,20.03
2023-05-17T10:50:02.130Z,19.84
2023-05-17T10:52:30.521Z,19.56
2023-05-17T10:54:59.731Z,19.40
2023-05-17T10:57:49.988Z,19.20
2023-05-17T11:00:29.691Z,19.08
2023-05-17T11:03:17.575Z,19.09
2023-05-17T11:06:05.800Z,19.22
2023-05-17T11:08:34.163Z,19.31
2023-05-17T11:11:09.676Z,19.51
2023-05-17T11:13:52.360Z,19.52
2023-05-17T11:16:28.560Z,19.40
2023-05-17T11:19:06.424Z,19.24
2023-05-17T11:21:35.652Z,19.19
2023-05-17T11:24:04.540Z,19.09
2023-05-17T11:26:37.756Z,19.00
2023-05-17T11:29:10.650Z,18.91
2023-05-17T11:31:43.523Z,18.95
2023-05-17T11:34:11.977Z,19.05
2023-05-17T11:36:53.297Z,18.94
2023-05-17T11:39:23.832Z,18.77
2023-05-17T11:41:52.847Z,18.81
2023-05-17T11:44:25.471Z,18.91
2023-05-17T11:47:00.778Z,19.19
2023-05-17T11:49:35.581Z,19.57
2023-05-17T11:52:05.032Z,19.66
2023-05-17T11:54:33.367Z,19.88
2023-05-17T11:57:04.000Z,20.31
2023-05-17T11:59:37.967Z,20.64
2023-05-17T12:02:05.888Z,20.73
2023-05-17T12:04:35.836Z,20.64
2023-05-17T12:07:04.312Z,20.51
2023-05-17T12:09:32.486Z,20.30
2023-05-17T12:12:04.715Z,20.21
2023-05-17T12:14:33.133Z,20.34
2023-05-17T12:17:04.092Z,20.36
2023-05-17T12:19:33.005Z,20.44
2023-05-17T12:22:08.814Z,20.73
2023-05-17T12:24:37.841Z,21.25
2023-05-17T12:27:06.265Z,21.58
2023-05-17T12:29:34.217Z,21.80
2023-05-17T12:32:02.475Z,22.03
2023-05-17T12:34:31.074Z,22.26
2023-05-17T12:36:59.106Z,22.59
2023-05-17T12:39:27.101Z,22.67
2023-05-17T12:41:58.054Z,22.65
2023-05-17T12:44:25.988Z,22.43
2023-05-17T12:46:56.412Z,22.05
2023-05-17T12:49:24.399Z,21.60
2023-05-17T12:51:52.244Z,21.35
2023-05-17T12:54:30.040Z,21.33
2023-05-17T12:56:58.172Z,21.45
2023-05-17T12:59:26.222Z,21.76
2023-05-17T13:01:55.987Z,22.05
2023-05-17T13:04:32.205Z,22.10
2023-05-17T13:07:03.746Z,22.20
2023-05-17T13:09:32.942Z,22.38
2023-05-17T13:12:05.487Z,22.43
2023-05-17T13:14:40.347Z,22.27
2023-05-17T13:17:15.970Z,21.82
2023-05-17T13:19:44.071Z,21.53
2023-05-17T13:22:11.972Z,21.40
2023-05-17T13:24:40.159Z,21.39
2023-05-17T13:27:08.316Z,21.30
2023-05-17T13:29:40.243Z,21.20
2023-05-17T13:32:09.756Z,21.41
2023-05-17T13:34:38.073Z,21.58
2023-05-17T13:37:08.692Z,21.77
2023-05-17T13:39:38.508Z,21.90
2023-05-17T13:42:07.118Z,21.77
2023-05-17T13:44:34.982Z,21.71
2023-05-17T13:47:02.816Z,21.70
2023-05-17T13:49:31.170Z,21.62
2023-05-17T13:51:59.089Z,21.58
2023-05-17T13:54:27.205Z,21.63
2023-05-17T13:56:55.770Z,21.62
2023-05-17T13:59:23.579Z,21.62
2023-05-17T14:01:51.794Z,21.47
2023-05-17T14:04:21.327Z,21.31
2023-05-17T14:06:50.220Z,21.24
2023-05-17T14:09:19.071Z,21.18
2023-05-17T14:11:47.173Z,21.07
2023-05-17T14:14:15.129Z,20.96
2023-05-17T14:16:43.501Z,20.93
2023-05-17T14:19:11.335Z,20.97
2023-05-17T14:21:43.273Z,21.03
2023-05-17T14:24:10.955Z,21.04
2023-05-17T14:26:38.801Z,21.09
2023-05-17T14:29:06.828Z,21.25
2023-05-17T14:31:34.965Z,21.48
2023-05-17T14:34:04.032Z,21.48
2023-05-17T14:36:34.186Z,21.46
2023-05-17T14:39:02.064Z,21.45
2023-05-17T14:41:30.063Z,21.39
2023-05-17T14:43:58.203Z,21.30
2023-05-17T14:46:26.482Z,21.26
2023-05-17T14:48:56.367Z,21.29
2023-05-17T14:51:25.188Z,21.33
2023-05-17T14:53:53.088Z,21.25
2023-05-17T14:56:22.495Z,21.14
2023-05-17T14:58:51.275Z,21.15
2023-05-17T15:01:19.367Z,21.10
2023-05-17T15:03:50.817Z,21.07
2023-05-17T15:06:24.827Z,21.09
2023-05-17T15:08:52.859Z,21.11
2023-05-17T15:11:22.046Z,21.08
2023-05-17T15:13:49.992Z,21.04
2023-05-17T15:16:17.921Z,20.99
2023-05-17T15:18:45.856Z,21.04
2023-05-17T15:21:13.655Z,21.25
2023-05-17T15:23:42.973Z,21.51
2023-05-17T15:26:11.380Z,21.65
2023-05-17T15:28:39.856Z,21.94
2023-05-17T15:31:10.895Z,22.28
2023-05-17T15:33:45.178Z,22.57
2023-05-17T15:36:13.947Z,22.77
2023-05-17T15:38:41.964Z,22.82
2023-05-17T15:41:15.076Z,22.79
2023-05-17T15:43:43.380Z,22.63
2023-05-17T15:46:12.132Z,22.26
2023-05-17T15:48:40.061Z,22.01
2023-05-17T15:51:08.058Z,21.85
2023-05-17T15:53:35.871Z,21.78
2023-05-17T15:56:04.165Z,21.74
2023-05-17T15:58:34.617Z,21.69
2023-05-17T16:01:07.015Z,21.62
2023-05-17T16:03:35.039Z,21.52
2023-05-17T16:06:04.607Z,21.37
2023-05-17T16:08:32.702Z,21.22
2023-05-17T16:11:02.570Z,21.10
2023-05-17T16:13:31.397Z,21.03
2023-05-17T16:16:01.582Z,20.96
2023-05-17T16:18:33.118Z,20.82
2023-05-17T16:21:04.346Z,20.74
2023-05-17T16:23:32.790Z,20.72
2023-05-17T16:26:03.576Z,20.86
2023-05-17T16:28:38.153Z,21.16
2023-05-17T16:31:09.436Z,21.41
2023-05-17T16:33:37.716Z,21.50
2023-05-17T16:36:05.846Z,21.50
2023-05-17T16:38:33.913Z,21.40
2023-05-17T16:41:03.421Z,21.30
2023-05-17T16:43:31.782Z,21.15
2023-05-17T16:45:59.806Z,20.99
2023-05-17T16:48:27.852Z,20.99
2023-05-17T16:50:56.140Z,20.95
2023-05-17T16:53:24.554Z,20.85
2023-05-17T16:55:52.415Z,20.75
2023-05-17T16:58:35.700Z,20.74
2023-05-17T17:01:08.958Z,20.94
2023-05-17T17:03:51.791Z,21.19
2023-05-17T17:06:22.537Z,21.30
2023-05-17T17:08:51.183Z,21.24
2023-05-17T17:11:23.251Z,21.16
2023-05-17T17:14:21.113Z,21.09
2023-05-17T17:16:52.528Z,20.93
2023-05-17T17:19:35.137Z,20.85
2023-05-17T17:22:05.663Z,20.87
2023-05-17T17:24:35.341Z,21.04
2023-05-17T17:27:10.225Z,21.20
2023-05-17T17:29:44.677Z,21.21
2023-05-17T17:32:13.089Z,21.09
2023-05-17T17:34:41.604Z,20.87
2023-05-17T17:37:09.506Z,20.63
2023-05-17T17:39:37.680Z,20.44
2023-05-17T17:42:10.755Z,20.27
2023-05-17T17:44:50.510Z,20.11
2023-05-17T17:47:38.054Z,20.00
2023-05-17T17:50:18.723Z,19.91
2023-05-17T17:57:11.800Z,19.63
2023-05-17T17:59:30.103Z,19.52
2023-05-17T18:01:59.963Z,19.44
2023-05-17T18:04:28.509Z,19.39
2023-05-17T18:07:17.300Z,19.31
2023-05-17T18:13:25.415Z,19.05
2023-05-17T18:23:17.926Z,18.75
2023-05-17T18:26:32.777Z,18.61
2023-05-17T18:33:13.659Z,18.29
2023-05-17T18:43:48.828Z,18.08
2023-05-17T18:50:04.031Z,17.96
2023-05-17T18:52:52.549Z,17.90
2023-05-17T19:03:46.115Z,17.61
2023-05-17T19:06:43.355Z,17.48
2023-05-17T19:40:24.110Z,16.24
2023-05-17T19:58:00.976Z,15.79
2023-05-17T21:03:56.343Z,14.64
2023-05-17T21:07:09.174Z,14.60
2023-05-17T21:10:01.106Z,14.55
2023-05-17T21:12:37.276Z,14.50
2023-05-17T21:31:25.822Z,14.12
2023-05-17T21:34:27.401Z,13.99
2023-05-17T21:37:26.237Z,13.90
2023-05-17T21:48:29.034Z,13.69
2023-05-17T22:14:49.250Z,13.30
2023-05-17T22:28:52.859Z,13.23
2023-05-17T22:35:56.556Z,13.16
2023-05-17T23:02:21.515Z,12.98
2023-05-17T23:04:49.103Z,12.90
2023-05-17T23:07:51.817Z,12.87
2023-05-17T23:11:05.600Z,12.84
2023-05-17T23:14:17.488Z,12.84
2023-05-17T23:17:25.918Z,12.84
2023-05-17T23:20:34.348Z,12.83
2023-05-17T23:23:42.140Z,12.82
2023-05-17T23:26:50.665Z,12.81
2023-05-17T23:30:02.328Z,12.81
2023-05-17T23:33:24.613Z,12.78
2023-05-17T23:40:22.846Z,12.67
2023-05-17T23:43:12.820Z,12.63
2023-05-17T23:46:21.314Z,12.61
2023-05-17T23:49:22.700Z,12.60
2023-05-17T23:52:21.484Z,12.59
2023-05-17T23:55:30.293Z,12.56
